sensor_id;sensor_type;location;lat;lon;timestamp;pressure;altitude;pressure_sealevel;temperature;humidity
47366;BME280;33105;47.964;7.982;2023-04-28T00:01:01;96500.16;;;12.40;62.28
47366;BME280;33105;47.964;7.982;2023-04-28T00:04:03;96497.94;;;12.47;62.79
47366;BME280;33105;47.964;7.982;2023-04-28T00:07:05;96494.31;;;12.62;62.40
47366;BME280;33105;47.964;7.982;2023-04-28T00:10:07;96495.13;;;12.62;62.51
47366;BME280;33105;47.964;7.982;2023-04-28T00:13:09;96487.91;;;12.86;60.98
47366;BME280;33105;47.964;7.982;2023-04-28T00:16:12;96487.53;;;12.98;61.17
47366;BME280;33105;47.964;7.982;2023-04-28T00:19:13;96476.66;;;12.83;61.34
47366;BME280;33105;47.964;7.982;2023-04-28T00:22:15;96464.53;;;12.89;61.40
47366;BME280;33105;47.964;7.982;2023-04-28T00:25:18;96459.19;;;12.69;62.50
47366;BME280;33105;47.964;7.982;2023-04-28T00:28:20;96463.38;;;12.61;63.03
47366;BME280;33105;47.964;7.982;2023-04-28T00:31:21;96460.38;;;12.52;63.09
47366;BME280;33105;47.964;7.982;2023-04-28T00:34:26;96459.03;;;12.45;62.54
47366;BME280;33105;47.964;7.982;2023-04-28T00:37:28;96449.59;;;12.66;62.81
47366;BME280;33105;47.964;7.982;2023-04-28T00:40:38;96449.19;;;12.39;63.54
47366;BME280;33105;47.964;7.982;2023-04-28T00:43:46;96447.56;;;12.38;65.33
47366;BME280;33105;47.964;7.982;2023-04-28T00:46:48;96435.50;;;12.39;64.80
47366;BME280;33105;47.964;7.982;2023-04-28T00:49:50;96444.81;;;12.38;64.72
47366;BME280;33105;47.964;7.982;2023-04-28T00:52:53;96442.59;;;12.45;64.13
47366;BME280;33105;47.964;7.982;2023-04-28T00:55:55;96439.03;;;12.49;64.17
47366;BME280;33105;47.964;7.982;2023-04-28T00:58:58;96439.06;;;12.39;64.05
47366;BME280;33105;47.964;7.982;2023-04-28T01:01:59;96437.13;;;12.45;64.75
47366;BME280;33105;47.964;7.982;2023-04-28T01:05:02;96429.44;;;12.47;64.79
47366;BME280;33105;47.964;7.982;2023-04-28T01:08:04;96443.66;;;12.54;64.72
47366;BME280;33105;47.964;7.982;2023-04-28T01:11:07;96444.25;;;12.46;64.89
47366;BME280;33105;47.964;7.982;2023-04-28T01:14:34;96449.16;;;12.54;65.74
47366;BME280;33105;47.964;7.982;2023-04-28T01:17:36;96441.94;;;12.68;65.86
47366;BME280;33105;47.964;7.982;2023-04-28T01:20:38;96451.84;;;12.59;67.34
47366;BME280;33105;47.964;7.982;2023-04-28T01:23:40;96474.06;;;12.57;70.40
47366;BME280;33105;47.964;7.982;2023-04-28T01:26:41;96475.44;;;12.60;69.98
47366;BME280;33105;47.964;7.982;2023-04-28T01:29:43;96475.75;;;12.48;71.78
47366;BME280;33105;47.964;7.982;2023-04-28T01:32:44;96479.91;;;12.36;74.06
47366;BME280;33105;47.964;7.982;2023-04-28T01:35:46;96484.31;;;12.26;77.05
47366;BME280;33105;47.964;7.982;2023-04-28T01:38:47;96484.91;;;12.13;78.53
47366;BME280;33105;47.964;7.982;2023-04-28T01:41:49;96487.66;;;12.08;79.83
47366;BME280;33105;47.964;7.982;2023-04-28T01:44:51;96495.63;;;11.95;82.13
47366;BME280;33105;47.964;7.982;2023-04-28T01:47:52;96495.13;;;11.82;83.06
47366;BME280;33105;47.964;7.982;2023-04-28T01:50:54;96498.94;;;11.76;83.86
47366;BME280;33105;47.964;7.982;2023-04-28T01:53:56;96521.09;;;11.75;84.11
47366;BME280;33105;47.964;7.982;2023-04-28T01:56:59;96518.91;;;11.72;85.76
47366;BME280;33105;47.964;7.982;2023-04-28T02:00:02;96520.25;;;11.69;86.45
47366;BME280;33105;47.964;7.982;2023-04-28T02:03:08;96520.25;;;11.89;86.02
47366;BME280;33105;47.964;7.982;2023-04-28T02:06:10;96530.16;;;11.85;85.74
47366;BME280;33105;47.964;7.982;2023-04-28T02:09:11;96527.91;;;11.67;87.41
47366;BME280;33105;47.964;7.982;2023-04-28T02:12:14;96531.22;;;11.54;88.40
47366;BME280;33105;47.964;7.982;2023-04-28T02:15:17;96523.81;;;11.39;89.94
47366;BME280;33105;47.964;7.982;2023-04-28T02:18:19;96536.97;;;11.37;90.93
47366;BME280;33105;47.964;7.982;2023-04-28T02:21:22;96531.47;;;11.27;91.09
47366;BME280;33105;47.964;7.982;2023-04-28T02:24:24;96530.41;;;11.53;90.35
47366;BME280;33105;47.964;7.982;2023-04-28T02:27:26;96520.78;;;11.05;93.38
47366;BME280;33105;47.964;7.982;2023-04-28T02:30:27;96517.47;;;10.88;95.61
47366;BME280;33105;47.964;7.982;2023-04-28T02:33:31;96513.97;;;11.23;94.00
47366;BME280;33105;47.964;7.982;2023-04-28T02:36:33;96510.13;;;11.14;94.58
47366;BME280;33105;47.964;7.982;2023-04-28T02:39:35;96510.69;;;11.11;94.99
47366;BME280;33105;47.964;7.982;2023-04-28T02:42:36;96511.44;;;10.91;97.46
47366;BME280;33105;47.964;7.982;2023-04-28T02:45:38;96510.91;;;10.84;100.00
47366;BME280;33105;47.964;7.982;2023-04-28T02:48:40;96508.16;;;10.79;100.00
47366;BME280;33105;47.964;7.982;2023-04-28T02:51:42;96498.63;;;10.86;100.00
47366;BME280;33105;47.964;7.982;2023-04-28T02:54:44;96502.69;;;10.79;100.00
47366;BME280;33105;47.964;7.982;2023-04-28T02:57:50;96501.34;;;10.86;100.00
47366;BME280;33105;47.964;7.982;2023-04-28T03:00:51;96501.84;;;10.63;100.00
47366;BME280;33105;47.964;7.982;2023-04-28T03:03:53;96485.72;;;10.62;100.00
47366;BME280;33105;47.964;7.982;2023-04-28T03:06:55;96486.53;;;10.72;100.00
47366;BME280;33105;47.964;7.982;2023-04-28T03:09:56;96488.72;;;10.70;100.00
47366;BME280;33105;47.964;7.982;2023-04-28T03:12:58;96497.41;;;10.52;100.00
47366;BME280;33105;47.964;7.982;2023-04-28T03:15:59;96494.69;;;10.52;100.00
47366;BME280;33105;47.964;7.982;2023-04-28T03:19:03;96487.63;;;10.61;100.00
47366;BME280;33105;47.964;7.982;2023-04-28T03:22:04;96487.59;;;10.66;100.00
47366;BME280;33105;47.964;7.982;2023-04-28T03:25:07;96482.16;;;10.66;100.00
47366;BME280;33105;47.964;7.982;2023-04-28T03:28:16;96490.91;;;10.68;100.00
47366;BME280;33105;47.964;7.982;2023-04-28T03:31:18;96494.75;;;10.72;100.00
47366;BME280;33105;47.964;7.982;2023-04-28T03:34:20;96481.38;;;10.76;100.00
47366;BME280;33105;47.964;7.982;2023-04-28T03:37:21;96478.09;;;10.84;100.00
47366;BME280;33105;47.964;7.982;2023-04-28T03:40:23;96476.69;;;10.66;100.00
47366;BME280;33105;47.964;7.982;2023-04-28T03:43:52;96479.66;;;10.54;100.00
47366;BME280;33105;47.964;7.982;2023-04-28T03:47:05;96467.09;;;10.53;100.00
47366;BME280;33105;47.964;7.982;2023-04-28T03:50:07;96462.94;;;10.41;100.00
47366;BME280;33105;47.964;7.982;2023-04-28T03:53:10;96466.56;;;10.56;100.00
47366;BME280;33105;47.964;7.982;2023-04-28T03:56:13;96470.84;;;10.32;100.00
47366;BME280;33105;47.964;7.982;2023-04-28T03:59:14;96456.72;;;10.55;100.00
47366;BME280;33105;47.964;7.982;2023-04-28T04:02:17;96443.94;;;10.76;100.00
47366;BME280;33105;47.964;7.982;2023-04-28T04:05:19;96448.31;;;10.77;100.00
47366;BME280;33105;47.964;7.982;2023-04-28T04:08:22;96443.28;;;10.44;100.00
47366;BME280;33105;47.964;7.982;2023-04-28T04:11:23;96444.94;;;10.45;100.00
47366;BME280;33105;47.964;7.982;2023-04-28T04:14:25;96450.13;;;10.36;100.00
47366;BME280;33105;47.964;7.982;2023-04-28T04:17:27;96446.56;;;10.41;100.00
47366;BME280;33105;47.964;7.982;2023-04-28T04:20:29;96447.69;;;10.50;100.00
47366;BME280;33105;47.964;7.982;2023-04-28T04:23:32;96451.25;;;10.50;100.00
47366;BME280;33105;47.964;7.982;2023-04-28T04:26:34;96452.06;;;10.51;100.00
47366;BME280;33105;47.964;7.982;2023-04-28T04:29:36;96458.66;;;10.65;100.00
47366;BME280;33105;47.964;7.982;2023-04-28T04:32:43;96439.56;;;10.80;100.00
47366;BME280;33105;47.964;7.982;2023-04-28T04:35:45;96443.09;;;10.71;100.00
47366;BME280;33105;47.964;7.982;2023-04-28T04:38:47;96445.84;;;10.76;100.00
47366;BME280;33105;47.964;7.982;2023-04-28T04:41:52;96447.47;;;10.62;100.00
47366;BME280;33105;47.964;7.982;2023-04-28T04:45:14;96456.75;;;10.61;100.00
47366;BME280;33105;47.964;7.982;2023-04-28T04:48:17;96456.19;;;10.69;100.00
47366;BME280;33105;47.964;7.982;2023-04-28T04:51:20;96468.50;;;10.71;100.00
47366;BME280;33105;47.964;7.982;2023-04-28T04:54:22;96454.03;;;10.76;100.00
47366;BME280;33105;47.964;7.982;2023-04-28T04:57:23;96461.38;;;10.60;100.00
47366;BME280;33105;47.964;7.982;2023-04-28T05:00:43;96455.97;;;10.90;100.00
47366;BME280;33105;47.964;7.982;2023-04-28T05:03:46;96450.81;;;11.04;100.00
47366;BME280;33105;47.964;7.982;2023-04-28T05:06:48;96460.91;;;11.04;100.00
47366;BME280;33105;47.964;7.982;2023-04-28T05:09:50;96453.22;;;10.80;100.00
47366;BME280;33105;47.964;7.982;2023-04-28T05:12:54;96446.69;;;10.81;100.00
47366;BME280;33105;47.964;7.982;2023-04-28T05:15:56;96454.34;;;11.00;100.00
47366;BME280;33105;47.964;7.982;2023-04-28T05:19:13;96447.25;;;10.88;100.00
47366;BME280;33105;47.964;7.982;2023-04-28T05:22:15;96449.69;;;10.95;100.00
47366;BME280;33105;47.964;7.982;2023-04-28T05:25:17;96444.25;;;11.05;100.00
47366;BME280;33105;47.964;7.982;2023-04-28T05:28:19;96445.06;;;11.21;100.00
47366;BME280;33105;47.964;7.982;2023-04-28T05:31:23;96437.41;;;11.13;100.00
47366;BME280;33105;47.964;7.982;2023-04-28T05:34:25;96441.50;;;11.05;100.00
47366;BME280;33105;47.964;7.982;2023-04-28T05:37:27;96443.41;;;11.00;100.00
47366;BME280;33105;47.964;7.982;2023-04-28T05:40:29;96447.25;;;11.04;100.00
47366;BME280;33105;47.964;7.982;2023-04-28T05:43:31;96445.34;;;11.30;100.00
47366;BME280;33105;47.964;7.982;2023-04-28T05:46:33;96443.16;;;11.27;100.00
47366;BME280;33105;47.964;7.982;2023-04-28T05:49:36;96443.69;;;11.34;100.00
47366;BME280;33105;47.964;7.982;2023-04-28T05:52:39;96445.03;;;11.41;100.00
47366;BME280;33105;47.964;7.982;2023-04-28T05:55:41;96449.16;;;11.54;100.00
47366;BME280;33105;47.964;7.982;2023-04-28T05:58:44;96451.34;;;11.52;100.00
47366;BME280;33105;47.964;7.982;2023-04-28T06:01:46;96444.22;;;11.56;100.00
47366;BME280;33105;47.964;7.982;2023-04-28T06:04:48;96448.59;;;11.57;100.00
47366;BME280;33105;47.964;7.982;2023-04-28T06:07:50;96444.78;;;11.48;100.00
47366;BME280;33105;47.964;7.982;2023-04-28T06:10:52;96442.31;;;11.51;100.00
47366;BME280;33105;47.964;7.982;2023-04-28T06:13:55;96451.06;;;11.58;100.00
47366;BME280;33105;47.964;7.982;2023-04-28T06:16:56;96447.19;;;11.70;100.00
47366;BME280;33105;47.964;7.982;2023-04-28T06:19:58;96453.25;;;11.77;100.00
47366;BME280;33105;47.964;7.982;2023-04-28T06:23:00;96466.94;;;11.82;100.00
47366;BME280;33105;47.964;7.982;2023-04-28T06:26:02;96468.53;;;11.73;100.00
47366;BME280;33105;47.964;7.982;2023-04-28T06:29:03;96447.78;;;11.51;100.00
47366;BME280;33105;47.964;7.982;2023-04-28T06:32:05;96442.25;;;11.92;100.00
47366;BME280;33105;47.964;7.982;2023-04-28T06:35:07;96449.41;;;11.63;100.00
47366;BME280;33105;47.964;7.982;2023-04-28T06:38:08;96452.41;;;11.86;100.00
47366;BME280;33105;47.964;7.982;2023-04-28T06:41:12;96449.94;;;11.75;100.00
47366;BME280;33105;47.964;7.982;2023-04-28T06:44:16;96457.63;;;11.63;100.00
47366;BME280;33105;47.964;7.982;2023-04-28T06:47:18;96448.59;;;11.82;100.00
47366;BME280;33105;47.964;7.982;2023-04-28T06:50:19;96455.34;;;12.10;100.00
47366;BME280;33105;47.964;7.982;2023-04-28T06:53:21;96459.78;;;11.91;100.00
47366;BME280;33105;47.964;7.982;2023-04-28T06:56:23;96454.75;;;12.18;100.00
47366;BME280;33105;47.964;7.982;2023-04-28T06:59:25;96475.59;;;12.14;100.00
47366;BME280;33105;47.964;7.982;2023-04-28T07:02:26;96480.00;;;12.10;100.00
47366;BME280;33105;47.964;7.982;2023-04-28T07:05:28;96498.63;;;12.08;100.00
47366;BME280;33105;47.964;7.982;2023-04-28T07:08:31;96496.44;;;12.10;100.00
47366;BME280;33105;47.964;7.982;2023-04-28T07:11:32;96492.28;;;12.18;100.00
47366;BME280;33105;47.964;7.982;2023-04-28T07:14:35;96483.84;;;12.09;100.00
47366;BME280;33105;47.964;7.982;2023-04-28T07:17:37;96486.56;;;12.09;100.00
47366;BME280;33105;47.964;7.982;2023-04-28T07:20:39;96464.91;;;12.13;100.00
47366;BME280;33105;47.964;7.982;2023-04-28T07:23:42;96467.38;;;12.14;100.00
47366;BME280;33105;47.964;7.982;2023-04-28T07:26:44;96465.16;;;12.26;100.00
47366;BME280;33105;47.964;7.982;2023-04-28T07:29:46;96478.84;;;12.26;100.00
47366;BME280;33105;47.964;7.982;2023-04-28T07:32:48;96482.41;;;12.27;100.00
47366;BME280;33105;47.964;7.982;2023-04-28T07:35:51;96481.25;;;12.38;100.00
47366;BME280;33105;47.964;7.982;2023-04-28T07:38:54;96489.72;;;12.47;100.00
47366;BME280;33105;47.964;7.982;2023-04-28T07:41:56;96482.59;;;12.46;100.00
47366;BME280;33105;47.964;7.982;2023-04-28T07:45:00;96488.34;;;12.49;100.00
47366;BME280;33105;47.964;7.982;2023-04-28T07:48:01;96483.66;;;12.60;100.00
47366;BME280;33105;47.964;7.982;2023-04-28T07:51:03;96474.84;;;12.63;100.00
47366;BME280;33105;47.964;7.982;2023-04-28T07:54:06;96483.06;;;12.63;100.00
47366;BME280;33105;47.964;7.982;2023-04-28T07:57:09;96476.19;;;12.66;100.00
47366;BME280;33105;47.964;7.982;2023-04-28T08:00:11;96485.78;;;12.68;100.00
47366;BME280;33105;47.964;7.982;2023-04-28T08:03:13;96487.75;;;12.57;100.00
47366;BME280;33105;47.964;7.982;2023-04-28T08:06:16;96489.06;;;12.65;100.00
47366;BME280;33105;47.964;7.982;2023-04-28T08:09:18;96486.38;;;12.60;100.00
47366;BME280;33105;47.964;7.982;2023-04-28T08:12:21;96496.16;;;12.76;100.00
47366;BME280;33105;47.964;7.982;2023-04-28T08:15:23;96495.09;;;12.67;100.00
47366;BME280;33105;47.964;7.982;2023-04-28T08:18:25;96493.97;;;12.73;100.00
47366;BME280;33105;47.964;7.982;2023-04-28T08:21:27;96490.59;;;12.91;100.00
47366;BME280;33105;47.964;7.982;2023-04-28T08:24:30;96491.09;;;12.99;100.00
47366;BME280;33105;47.964;7.982;2023-04-28T08:27:35;96501.22;;;13.03;100.00
47366;BME280;33105;47.964;7.982;2023-04-28T08:30:39;96497.16;;;12.90;100.00
47366;BME280;33105;47.964;7.982;2023-04-28T08:33:42;96494.44;;;12.90;100.00
47366;BME280;33105;47.964;7.982;2023-04-28T08:36:45;96493.00;;;13.03;100.00
47366;BME280;33105;47.964;7.982;2023-04-28T08:39:47;96509.50;;;12.88;100.00
47366;BME280;33105;47.964;7.982;2023-04-28T08:42:49;96530.16;;;12.75;100.00
47366;BME280;33105;47.964;7.982;2023-04-28T08:45:51;96535.06;;;12.78;100.00
47366;BME280;33105;47.964;7.982;2023-04-28T08:48:58;96544.34;;;12.87;100.00
47366;BME280;33105;47.964;7.982;2023-04-28T08:52:11;96549.31;;;12.85;100.00
47366;BME280;33105;47.964;7.982;2023-04-28T08:55:14;96567.88;;;12.99;100.00
47366;BME280;33105;47.964;7.982;2023-04-28T08:58:18;96559.59;;;13.09;100.00
47366;BME280;33105;47.964;7.982;2023-04-28T09:01:19;96560.94;;;13.21;100.00
47366;BME280;33105;47.964;7.982;2023-04-28T09:04:21;96546.66;;;13.24;100.00
47366;BME280;33105;47.964;7.982;2023-04-28T09:07:24;96541.94;;;13.35;100.00
47366;BME280;33105;47.964;7.982;2023-04-28T09:10:26;96542.97;;;13.39;100.00
47366;BME280;33105;47.964;7.982;2023-04-28T09:13:29;96544.88;;;13.39;100.00
47366;BME280;33105;47.964;7.982;2023-04-28T09:16:39;96553.00;;;13.59;100.00
47366;BME280;33105;47.964;7.982;2023-04-28T09:19:42;96550.84;;;13.51;100.00
47366;BME280;33105;47.964;7.982;2023-04-28T09:22:43;96558.06;;;13.37;100.00
47366;BME280;33105;47.964;7.982;2023-04-28T09:26:00;96550.28;;;13.10;100.00
47366;BME280;33105;47.964;7.982;2023-04-28T09:29:11;96562.13;;;13.00;100.00
47366;BME280;33105;47.964;7.982;2023-04-28T09:32:16;96559.38;;;13.00;100.00
47366;BME280;33105;47.964;7.982;2023-04-28T09:35:38;96561.59;;;12.88;100.00
47366;BME280;33105;47.964;7.982;2023-04-28T09:38:43;96567.06;;;12.98;100.00
47366;BME280;33105;47.964;7.982;2023-04-28T09:41:46;96570.06;;;12.97;100.00
47366;BME280;33105;47.964;7.982;2023-04-28T09:44:53;96556.78;;;13.29;100.00
47366;BME280;33105;47.964;7.982;2023-04-28T09:48:08;96561.44;;;13.68;100.00
47366;BME280;33105;47.964;7.982;2023-04-28T09:51:11;96561.84;;;13.85;100.00
47366;BME280;33105;47.964;7.982;2023-04-28T09:54:14;96564.28;;;13.86;100.00
47366;BME280;33105;47.964;7.982;2023-04-28T09:57:17;96562.47;;;13.77;100.00
47366;BME280;33105;47.964;7.982;2023-04-28T10:00:20;96565.75;;;13.79;100.00
47366;BME280;33105;47.964;7.982;2023-04-28T10:03:25;96561.06;;;13.79;100.00
47366;BME280;33105;47.964;7.982;2023-04-28T10:06:28;96562.53;;;13.67;100.00
47366;BME280;33105;47.964;7.982;2023-04-28T10:09:31;96561.25;;;13.88;100.00
47366;BME280;33105;47.964;7.982;2023-04-28T10:12:33;96556.31;;;13.90;100.00
47366;BME280;33105;47.964;7.982;2023-04-28T10:15:39;96558.94;;;14.05;100.00
47366;BME280;33105;47.964;7.982;2023-04-28T10:18:41;96564.84;;;14.17;100.00
47366;BME280;33105;47.964;7.982;2023-04-28T10:21:54;96558.97;;;14.29;100.00
47366;BME280;33105;47.964;7.982;2023-04-28T10:28:30;96561.84;;;14.14;100.00
47366;BME280;33105;47.964;7.982;2023-04-28T10:31:32;96565.63;;;13.89;100.00
47366;BME280;33105;47.964;7.982;2023-04-28T10:34:35;96555.72;;;13.93;100.00
47366;BME280;33105;47.964;7.982;2023-04-28T10:38:05;96548.34;;;14.17;100.00
47366;BME280;33105;47.964;7.982;2023-04-28T10:41:32;96552.53;;;14.39;100.00
47366;BME280;33105;47.964;7.982;2023-04-28T10:47:58;96557.09;;;14.77;100.00
47366;BME280;33105;47.964;7.982;2023-04-28T10:54:07;96567.50;;;14.27;100.00
47366;BME280;33105;47.964;7.982;2023-04-28T10:57:16;96554.50;;;14.09;100.00
47366;BME280;33105;47.964;7.982;2023-04-28T11:00:28;96555.06;;;14.06;100.00
47366;BME280;33105;47.964;7.982;2023-04-28T11:07:08;96549.72;;;14.20;100.00
47366;BME280;33105;47.964;7.982;2023-04-28T11:10:11;96535.47;;;14.89;100.00
47366;BME280;33105;47.964;7.982;2023-04-28T11:13:28;96537.97;;;14.86;100.00
47366;BME280;33105;47.964;7.982;2023-04-28T11:16:47;96541.22;;;14.69;100.00
47366;BME280;33105;47.964;7.982;2023-04-28T11:19:50;96542.69;;;14.61;100.00
47366;BME280;33105;47.964;7.982;2023-04-28T11:22:53;96534.66;;;14.65;100.00
47366;BME280;33105;47.964;7.982;2023-04-28T11:25:55;96537.31;;;14.51;100.00
47366;BME280;33105;47.964;7.982;2023-04-28T11:28:59;96529.22;;;14.60;100.00
47366;BME280;33105;47.964;7.982;2023-04-28T11:32:05;96529.16;;;14.89;100.00
47366;BME280;33105;47.964;7.982;2023-04-28T11:35:08;96526.63;;;15.11;100.00
47366;BME280;33105;47.964;7.982;2023-04-28T11:38:10;96526.72;;;15.44;100.00
47366;BME280;33105;47.964;7.982;2023-04-28T11:41:13;96525.72;;;15.58;100.00
47366;BME280;33105;47.964;7.982;2023-04-28T11:44:17;96515.41;;;15.83;100.00
47366;BME280;33105;47.964;7.982;2023-04-28T11:47:28;96512.88;;;15.49;100.00
47366;BME280;33105;47.964;7.982;2023-04-28T11:50:35;96508.44;;;15.34;100.00
47366;BME280;33105;47.964;7.982;2023-04-28T11:53:43;96502.69;;;15.49;100.00
47366;BME280;33105;47.964;7.982;2023-04-28T11:56:45;96498.38;;;15.81;100.00
47366;BME280;33105;47.964;7.982;2023-04-28T11:59:49;96507.22;;;15.78;100.00
47366;BME280;33105;47.964;7.982;2023-04-28T12:02:51;96495.56;;;15.48;100.00
47366;BME280;33105;47.964;7.982;2023-04-28T12:05:54;96494.22;;;15.64;100.00
47366;BME280;33105;47.964;7.982;2023-04-28T12:08:56;96499.28;;;15.90;100.00
47366;BME280;33105;47.964;7.982;2023-04-28T12:12:00;96488.47;;;15.61;100.00
47366;BME280;33105;47.964;7.982;2023-04-28T12:15:05;96492.88;;;15.62;100.00
47366;BME280;33105;47.964;7.982;2023-04-28T12:18:10;96485.72;;;15.93;100.00
47366;BME280;33105;47.964;7.982;2023-04-28T12:21:20;96485.13;;;16.10;100.00
47366;BME280;33105;47.964;7.982;2023-04-28T12:24:22;96493.56;;;16.32;100.00
47366;BME280;33105;47.964;7.982;2023-04-28T12:27:26;96487.88;;;17.20;100.00
47366;BME280;33105;47.964;7.982;2023-04-28T12:30:31;96486.06;;;17.15;100.00
47366;BME280;33105;47.964;7.982;2023-04-28T12:33:34;96478.06;;;17.50;100.00
47366;BME280;33105;47.964;7.982;2023-04-28T12:36:40;96494.44;;;17.24;100.00
47366;BME280;33105;47.964;7.982;2023-04-28T12:39:42;96481.03;;;16.81;100.00
47366;BME280;33105;47.964;7.982;2023-04-28T12:42:44;96498.13;;;17.19;100.00
47366;BME280;33105;47.964;7.982;2023-04-28T12:45:51;96478.13;;;17.00;100.00
47366;BME280;33105;47.964;7.982;2023-04-28T12:48:58;96484.06;;;17.07;100.00
47366;BME280;33105;47.964;7.982;2023-04-28T12:52:00;96482.16;;;16.80;100.00
47366;BME280;33105;47.964;7.982;2023-04-28T12:55:03;96475.00;;;16.79;100.00
47366;BME280;33105;47.964;7.982;2023-04-28T12:58:05;96469.94;;;16.95;100.00
47366;BME280;33105;47.964;7.982;2023-04-28T13:01:07;96475.34;;;17.36;100.00
47366;BME280;33105;47.964;7.982;2023-04-28T13:04:10;96465.31;;;17.62;73.99
47366;BME280;33105;47.964;7.982;2023-04-28T13:07:14;96458.16;;;17.39;86.37
47366;BME280;33105;47.964;7.982;2023-04-28T13:10:17;96464.38;;;17.81;83.22
47366;BME280;33105;47.964;7.982;2023-04-28T13:13:19;96462.69;;;17.57;75.59
47366;BME280;33105;47.964;7.982;2023-04-28T13:16:22;96467.56;;;17.38;78.39
47366;BME280;33105;47.964;7.982;2023-04-28T13:19:26;96460.38;;;17.15;82.18
47366;BME280;33105;47.964;7.982;2023-04-28T13:22:28;96456.44;;;17.07;82.88
47366;BME280;33105;47.964;7.982;2023-04-28T13:25:30;96455.47;;;17.48;75.91
47366;BME280;33105;47.964;7.982;2023-04-28T13:28:32;96461.03;;;17.34;81.35
47366;BME280;33105;47.964;7.982;2023-04-28T13:31:34;96447.41;;;17.74;79.60
47366;BME280;33105;47.964;7.982;2023-04-28T13:34:36;96444.63;;;17.96;77.21
47366;BME280;33105;47.964;7.982;2023-04-28T13:37:38;96443.38;;;18.11;78.27
47366;BME280;33105;47.964;7.982;2023-04-28T13:40:47;96438.50;;;17.77;78.55
47366;BME280;33105;47.964;7.982;2023-04-28T13:43:49;96436.53;;;18.08;74.21
47366;BME280;33105;47.964;7.982;2023-04-28T13:46:51;96435.09;;;18.11;72.40
47366;BME280;33105;47.964;7.982;2023-04-28T13:49:53;96417.28;;;18.25;71.89
47366;BME280;33105;47.964;7.982;2023-04-28T13:52:56;96421.09;;;18.47;73.33
47366;BME280;33105;47.964;7.982;2023-04-28T13:55:59;96431.03;;;18.56;71.25
47366;BME280;33105;47.964;7.982;2023-04-28T13:59:02;96432.72;;;18.26;70.11
47366;BME280;33105;47.964;7.982;2023-04-28T14:02:04;96413.19;;;18.23;73.09
47366;BME280;33105;47.964;7.982;2023-04-28T14:05:06;96413.06;;;18.28;72.03
47366;BME280;33105;47.964;7.982;2023-04-28T14:08:07;96429.41;;;17.85;74.79
47366;BME280;33105;47.964;7.982;2023-04-28T14:11:11;96420.94;;;18.12;72.38
47366;BME280;33105;47.964;7.982;2023-04-28T14:14:14;96411.44;;;17.96;72.60
47366;BME280;33105;47.964;7.982;2023-04-28T14:17:16;96414.41;;;18.08;74.30
47366;BME280;33105;47.964;7.982;2023-04-28T14:20:18;96402.41;;;18.52;67.62
47366;BME280;33105;47.964;7.982;2023-04-28T14:23:23;96399.94;;;18.51;72.30
47366;BME280;33105;47.964;7.982;2023-04-28T14:26:26;96396.38;;;18.50;73.10
47366;BME280;33105;47.964;7.982;2023-04-28T14:29:27;96394.34;;;18.33;67.85
47366;BME280;33105;47.964;7.982;2023-04-28T14:32:30;96402.72;;;18.11;71.83
47366;BME280;33105;47.964;7.982;2023-04-28T14:35:33;96395.53;;;18.01;70.43
47366;BME280;33105;47.964;7.982;2023-04-28T14:38:35;96390.91;;;18.19;65.43
47366;BME280;33105;47.964;7.982;2023-04-28T14:41:37;96405.47;;;18.02;65.07
47366;BME280;33105;47.964;7.982;2023-04-28T14:44:39;96403.09;;;17.87;68.99
47366;BME280;33105;47.964;7.982;2023-04-28T14:47:41;96394.75;;;18.10;68.25
47366;BME280;33105;47.964;7.982;2023-04-28T14:50:44;96398.38;;;17.88;68.26
47366;BME280;33105;47.964;7.982;2023-04-28T14:53:46;96401.94;;;17.80;69.99
47366;BME280;33105;47.964;7.982;2023-04-28T14:56:49;96399.84;;;17.85;71.58
47366;BME280;33105;47.964;7.982;2023-04-28T14:59:53;96399.75;;;17.99;69.81
47366;BME280;33105;47.964;7.982;2023-04-28T15:02:55;96397.28;;;18.37;71.07
47366;BME280;33105;47.964;7.982;2023-04-28T15:05:58;96397.88;;;18.65;68.14
47366;BME280;33105;47.964;7.982;2023-04-28T15:09:02;96392.22;;;18.70;69.54
47366;BME280;33105;47.964;7.982;2023-04-28T15:12:04;96394.50;;;18.85;67.09
47366;BME280;33105;47.964;7.982;2023-04-28T15:15:08;96391.91;;;19.15;67.69
47366;BME280;33105;47.964;7.982;2023-04-28T15:18:09;96384.09;;;18.91;69.70
47366;BME280;33105;47.964;7.982;2023-04-28T15:21:11;96383.09;;;18.69;67.26
47366;BME280;33105;47.964;7.982;2023-04-28T15:24:14;96378.56;;;18.25;69.46
47366;BME280;33105;47.964;7.982;2023-04-28T15:27:16;96390.19;;;18.05;70.08
47366;BME280;33105;47.964;7.982;2023-04-28T15:30:18;96385.25;;;17.93;70.63
47366;BME280;33105;47.964;7.982;2023-04-28T15:33:19;96377.59;;;17.90;71.17
47366;BME280;33105;47.964;7.982;2023-04-28T15:36:21;96375.38;;;18.01;68.37
47366;BME280;33105;47.964;7.982;2023-04-28T15:39:23;96371.31;;;17.67;70.98
47366;BME280;33105;47.964;7.982;2023-04-28T15:42:26;96372.44;;;17.97;68.58
47366;BME280;33105;47.964;7.982;2023-04-28T15:45:29;96363.03;;;17.67;70.88
47366;BME280;33105;47.964;7.982;2023-04-28T15:48:30;96358.19;;;17.82;69.22
47366;BME280;33105;47.964;7.982;2023-04-28T15:51:32;96360.31;;;17.85;68.77
47366;BME280;33105;47.964;7.982;2023-04-28T15:54:33;96356.94;;;17.88;68.17
47366;BME280;33105;47.964;7.982;2023-04-28T15:57:36;96358.19;;;17.82;68.60
47366;BME280;33105;47.964;7.982;2023-04-28T16:00:40;96353.50;;;17.60;69.11
47366;BME280;33105;47.964;7.982;2023-04-28T16:03:43;96347.38;;;17.41;72.33
47366;BME280;33105;47.964;7.982;2023-04-28T16:06:44;96344.88;;;17.53;70.25
47366;BME280;33105;47.964;7.982;2023-04-28T16:09:46;96347.91;;;17.43;70.69
47366;BME280;33105;47.964;7.982;2023-04-28T16:12:48;96352.78;;;17.46;67.54
47366;BME280;33105;47.964;7.982;2023-04-28T16:15:50;96341.81;;;17.54;66.76